Oberwart, Austria
Current Conditions -  °F | °C
As of 4:50 PM on Friday 19 Dec 2014 (Local Time) from LOWG Reporting Station
Clear Clear  
Wind Chill: 50°   Ceiling: Unl
Heat Index: 50°   Visibility: 6mi
Dew Point: 43°   Wind: 1mph
Humidity: 76%   Direction: NA
Pressure: 30"   Gusts: NA
Location:  47.29°N, 16.2°E
Report Text: LOWG 191450Z VRB01KT CAVOK 10/06 Q1016 R17/1///95 NOSIG
Loading
Personal Weather Stations






























Interactive Weather Map New forecast layout! Learn more

10-Day Weather Forecast

Advertisements
Track Severe Weather on mobile